Aviation Digital Data Service (ADDS)

Output produced by METARs form (0144 UTC 21 September 2018)
found at http://aviationweather.gov/metar/data/
 
KTUS 202320Z 2100/2124 33008KT P6SM FEW080 
     FM210300 25006KT P6SM FEW080 
     FM210700 16006KT P6SM SKC 
     FM211800 33007KT P6SM FEW100